Time;durP1;ratioP1;P1;durP2;ratioP2;P2;SDS_P1;SDS_P2;PMS_P1;PMS_P2;Temp;Humidity;BMP_temperature;BMP_pressure;BME280_temperature;BME280_humidity;BME280_pressure;Samples;Min_cycle;Max_cycle;Signal;HPM_P1;HPM_P2
2021/12/09 00:00:43;;;;;;;;;0.50;0.50;;;;;;;;5097578;27;45406;-48
2021/12/09 00:03:11;;;;;;;;;0.75;0.75;;;;;;;;5097410;27;45407;-43
2021/12/09 00:05:37;;;;;;;;;0.00;0.00;;;;;;;;5095970;27;45647;-45
2021/12/09 00:08:03;;;;;;;;;1.00;0.00;;;;;;;;5097296;27;45608;-43
2021/12/09 00:10:29;;;;;;;;;1.50;1.25;;;;;;;;5096987;27;45492;-44
2021/12/09 00:12:54;;;;;;;;;0.00;0.00;;;;;;;;5096505;27;45463;-44
2021/12/09 00:15:19;;;;;;;;;1.00;1.00;;;;;;;;5097762;27;45589;-44
2021/12/09 00:17:44;;;;;;;;;1.75;0.50;;;;;;;;5096585;27;46656;-44
2021/12/09 00:20:10;;;;;;;;;0.00;0.00;;;;;;;;5096555;27;45387;-44
2021/12/09 00:22:35;;;;;;;;;0.00;0.00;;;;;;;;5096899;27;45477;-43
2021/12/09 00:25:00;;;;;;;;;1.00;1.00;;;;;;;;5097664;27;45203;-43
2021/12/09 00:27:26;;;;;;;;;1.50;0.00;;;;;;;;5090180;27;46472;-45
2021/12/09 00:29:51;;;;;;;;;2.50;0.50;;;;;;;;5096503;27;45389;-42
2021/12/09 00:32:16;;;;;;;;;2.50;0.00;;;;;;;;5097691;27;45476;-42
2021/12/09 00:34:46;;;;;;;;;0.25;0.00;;;;;;;;5078585;27;45558;-44
2021/12/09 00:37:24;;;;;;;;;1.00;0.25;;;;;;;;5093974;27;47242;-41
2021/12/09 00:39:50;;;;;;;;;0.00;0.00;;;;;;;;5096913;27;45326;-42
2021/12/09 00:42:15;;;;;;;;;0.00;0.00;;;;;;;;5095151;27;45537;-43
2021/12/09 00:44:41;;;;;;;;;2.00;0.00;;;;;;;;5094653;27;45663;-41
2021/12/09 00:47:06;;;;;;;;;0.00;0.00;;;;;;;;5096320;27;45674;-44
2021/12/09 00:49:31;;;;;;;;;0.00;0.00;;;;;;;;5096602;27;45467;-44
2021/12/09 00:52:00;;;;;;;;;0.00;0.00;;;;;;;;5095838;27;45431;-44
2021/12/09 00:54:25;;;;;;;;;2.00;0.00;;;;;;;;5095359;27;45465;-42
2021/12/09 00:56:50;;;;;;;;;1.00;1.00;;;;;;;;5095458;27;46686;-43
2021/12/09 00:59:16;;;;;;;;;0.00;0.00;;;;;;;;5096772;27;45520;-43
2021/12/09 01:01:41;;;;;;;;;5.00;2.00;;;;;;;;5097594;27;45489;-42
2021/12/09 01:04:06;;;;;;;;;0.00;0.00;;;;;;;;5096180;27;45543;-43
2021/12/09 01:06:32;;;;;;;;;1.00;0.00;;;;;;;;5097067;27;46279;-44
2021/12/09 01:08:57;;;;;;;;;0.25;0.25;;;;;;;;5074180;27;45468;-44
2021/12/09 01:11:22;;;;;;;;;1.00;1.00;;;;;;;;5075804;27;45320;-44
2021/12/09 01:13:47;;;;;;;;;0.00;0.00;;;;;;;;5076829;27;45302;-42
2021/12/09 01:16:13;;;;;;;;;0.25;0.25;;;;;;;;5074356;27;45992;-44
2021/12/09 01:18:39;;;;;;;;;0.00;0.00;;;;;;;;5076049;28;45500;-42
2021/12/09 01:21:04;;;;;;;;;0.50;0.50;;;;;;;;5076913;27;45479;-43
2021/12/09 01:23:30;;;;;;;;;2.50;0.00;;;;;;;;5076884;27;45583;-43
2021/12/09 01:26:01;;;;;;;;;1.00;1.00;;;;;;;;5067620;27;47196;-45
2021/12/09 01:28:29;;;;;;;;;1.00;1.00;;;;;;;;5063972;27;45786;-41
2021/12/09 01:31:01;;;;;;;;;1.75;0.75;;;;;;;;5075146;28;45362;-43
2021/12/09 01:33:26;;;;;;;;;1.00;1.00;;;;;;;;5076876;27;45515;-45
2021/12/09 01:35:52;;;;;;;;;0.50;0.50;;;;;;;;5075977;27;45923;-45
2021/12/09 01:38:17;;;;;;;;;0.25;0.25;;;;;;;;5076131;27;45478;-42
2021/12/09 01:40:43;;;;;;;;;1.00;1.00;;;;;;;;5077101;27;45292;-44
2021/12/09 01:43:09;;;;;;;;;1.00;0.00;;;;;;;;5076484;27;45578;-43
2021/12/09 01:45:34;;;;;;;;;1.00;0.00;;;;;;;;5075045;28;47499;-44
2021/12/09 01:47:59;;;;;;;;;1.00;0.00;;;;;;;;5076306;27;45353;-44
2021/12/09 01:50:26;;;;;;;;;1.00;1.00;;;;;;;;5076594;27;45198;-42
2021/12/09 01:52:51;;;;;;;;;1.25;1.00;;;;;;;;5076183;27;45376;-41
2021/12/09 01:55:18;;;;;;;;;1.50;0.00;;;;;;;;5074614;27;45489;-44
2021/12/09 01:57:46;;;;;;;;;0.00;0.00;;;;;;;;5075656;27;45500;-42
2021/12/09 02:00:13;;;;;;;;;2.00;0.25;;;;;;;;5075652;27;45548;-41
2021/12/09 02:02:40;;;;;;;;;1.50;0.50;;;;;;;;5075532;27;45309;-42
2021/12/09 02:05:05;;;;;;;;;0.00;0.00;;;;;;;;5072147;28;46076;-43
2021/12/09 02:07:31;;;;;;;;;1.75;1.00;;;;;;;;5078049;27;45512;-43
2021/12/09 02:09:56;;;;;;;;;0.50;0.50;;;;;;;;5096266;27;45564;-42
2021/12/09 02:12:22;;;;;;;;;1.00;0.00;;;;;;;;5096467;27;45243;-43
2021/12/09 02:14:47;;;;;;;;;0.75;0.00;;;;;;;;5077897;27;46993;-43
2021/12/09 02:17:12;;;;;;;;;1.00;1.00;;;;;;;;5096433;27;45358;-42
2021/12/09 02:19:42;;;;;;;;;1.00;0.00;;;;;;;;5095599;27;45193;-44
2021/12/09 02:22:08;;;;;;;;;0.00;0.00;;;;;;;;5096475;27;45623;-44
2021/12/09 02:24:33;;;;;;;;;0.00;0.00;;;;;;;;5095067;27;45641;-44
2021/12/09 02:26:59;;;;;;;;;1.75;1.75;;;;;;;;5096532;27;45419;-42
2021/12/09 02:29:24;;;;;;;;;0.00;0.00;;;;;;;;5096338;27;45587;-41
2021/12/09 02:31:56;;;;;;;;;0.50;0.25;;;;;;;;5095304;27;45559;-43
2021/12/09 02:34:21;;;;;;;;;0.00;0.00;;;;;;;;5096353;27;45612;-44
2021/12/09 02:36:46;;;;;;;;;1.00;0.00;;;;;;;;5096327;27;45381;-42
2021/12/09 02:39:12;;;;;;;;;1.00;0.00;;;;;;;;5077951;27;45345;-43
2021/12/09 02:41:39;;;;;;;;;0.25;0.25;;;;;;;;5095561;27;45567;-44
2021/12/09 02:44:05;;;;;;;;;2.00;1.00;;;;;;;;5096009;27;46160;-44
2021/12/09 02:46:37;;;;;;;;;0.00;0.00;;;;;;;;5095287;27;45374;-44
2021/12/09 02:49:03;;;;;;;;;2.00;2.00;;;;;;;;5095971;27;45361;-42
2021/12/09 02:51:29;;;;;;;;;0.75;0.50;;;;;;;;5096559;27;45547;-44
2021/12/09 02:53:54;;;;;;;;;0.00;0.00;;;;;;;;5093016;27;46460;-42
2021/12/09 02:56:20;;;;;;;;;0.00;0.00;;;;;;;;5094701;27;45393;-43
2021/12/09 02:58:45;;;;;;;;;0.00;0.00;;;;;;;;5095300;27;45498;-43
2021/12/09 03:01:16;;;;;;;;;0.00;0.00;;;;;;;;5095929;27;45508;-43
2021/12/09 03:03:55;;;;;;;;;0.00;0.00;;;;;;;;5095492;27;46352;-43
2021/12/09 03:06:23;;;;;;;;;0.25;0.25;;;;;;;;5096092;27;45562;-42
2021/12/09 03:08:49;;;;;;;;;1.50;0.25;;;;;;;;5099171;27;45428;-42
2021/12/09 03:11:16;;;;;;;;;2.00;0.25;;;;;;;;5099978;27;45373;-42
2021/12/09 03:13:42;;;;;;;;;1.00;1.00;;;;;;;;5098216;27;46216;-45
2021/12/09 03:16:07;;;;;;;;;3.00;1.50;;;;;;;;5098486;27;45990;-42
2021/12/09 03:18:43;;;;;;;;;1.00;1.00;;;;;;;;5099599;27;45612;-45
2021/12/09 03:21:13;;;;;;;;;2.75;1.00;;;;;;;;5099452;27;45486;-43
2021/12/09 03:23:38;;;;;;;;;0.00;0.00;;;;;;;;5098471;27;45555;-44
2021/12/09 03:26:03;;;;;;;;;0.75;0.75;;;;;;;;5071220;27;45503;-42
2021/12/09 03:28:28;;;;;;;;;1.00;1.00;;;;;;;;5099391;27;45223;-42
2021/12/09 03:30:54;;;;;;;;;1.75;1.75;;;;;;;;5081076;27;45545;-44
2021/12/09 03:33:19;;;;;;;;;1.25;1.00;;;;;;;;5099326;27;45643;-44
2021/12/09 03:35:44;;;;;;;;;2.00;1.00;;;;;;;;5099128;27;45464;-41
2021/12/09 03:38:09;;;;;;;;;1.00;0.00;;;;;;;;5095196;27;45356;-42
2021/12/09 03:40:35;;;;;;;;;0.75;0.75;;;;;;;;5098691;27;45529;-43
2021/12/09 03:43:00;;;;;;;;;2.75;2.00;;;;;;;;5099036;27;45452;-43
2021/12/09 03:45:25;;;;;;;;;1.00;1.00;;;;;;;;5098436;27;45505;-42
2021/12/09 03:47:50;;;;;;;;;0.00;0.00;;;;;;;;5098698;27;45492;-44
2021/12/09 03:50:17;;;;;;;;;1.00;1.00;;;;;;;;5099589;27;45433;-43
2021/12/09 03:52:42;;;;;;;;;1.50;0.75;;;;;;;;5098429;27;45559;-42
2021/12/09 03:55:08;;;;;;;;;0.25;0.25;;;;;;;;5097526;27;45334;-44
2021/12/09 03:57:33;;;;;;;;;1.00;1.00;;;;;;;;5098419;27;45517;-43
2021/12/09 03:59:58;;;;;;;;;0.00;0.00;;;;;;;;5098343;27;45299;-42
2021/12/09 04:02:24;;;;;;;;;1.50;1.50;;;;;;;;5098800;27;45455;-41
2021/12/09 04:04:49;;;;;;;;;1.00;1.00;;;;;;;;5099292;27;45335;-42
2021/12/09 04:07:14;;;;;;;;;0.75;0.75;;;;;;;;5093598;27;45540;-44
2021/12/09 04:09:39;;;;;;;;;1.00;0.75;;;;;;;;5093522;27;45234;-45
2021/12/09 04:12:05;;;;;;;;;1.75;1.50;;;;;;;;5080412;27;46445;-44
2021/12/09 04:14:32;;;;;;;;;1.00;0.00;;;;;;;;5098913;27;45417;-42
2021/12/09 04:16:58;;;;;;;;;0.75;0.75;;;;;;;;5098541;27;45402;-43
2021/12/09 04:19:23;;;;;;;;;1.00;1.00;;;;;;;;5098650;27;45351;-43
2021/12/09 04:21:49;;;;;;;;;0.75;0.75;;;;;;;;5098323;27;46017;-42
2021/12/09 04:24:15;;;;;;;;;0.50;0.00;;;;;;;;5098996;27;45262;-41
2021/12/09 04:26:42;;;;;;;;;0.00;0.00;;;;;;;;5098709;27;45470;-41
2021/12/09 04:29:08;;;;;;;;;1.00;1.00;;;;;;;;5099145;27;45484;-42
2021/12/09 04:31:34;;;;;;;;;1.00;1.00;;;;;;;;5097759;27;45453;-42
2021/12/09 04:33:59;;;;;;;;;1.00;1.00;;;;;;;;5098358;27;45473;-44
2021/12/09 04:36:25;;;;;;;;;1.75;1.75;;;;;;;;5097737;27;45416;-42
2021/12/09 04:38:51;;;;;;;;;1.00;1.00;;;;;;;;5098849;27;45644;-44
2021/12/09 04:41:17;;;;;;;;;1.25;1.00;;;;;;;;5098669;27;45353;-43
2021/12/09 04:43:43;;;;;;;;;0.25;0.25;;;;;;;;5097892;27;45548;-44
2021/12/09 04:46:08;;;;;;;;;1.00;1.00;;;;;;;;5098273;27;45387;-42
2021/12/09 04:48:34;;;;;;;;;2.25;1.00;;;;;;;;5087372;27;45782;-42
2021/12/09 04:50:59;;;;;;;;;0.00;0.00;;;;;;;;5098171;27;46110;-42
2021/12/09 04:53:24;;;;;;;;;1.00;1.00;;;;;;;;5098032;27;45611;-43
2021/12/09 04:55:49;;;;;;;;;1.50;1.00;;;;;;;;5097324;27;45575;-42
2021/12/09 04:58:14;;;;;;;;;3.00;1.00;;;;;;;;5098333;27;45436;-42
2021/12/09 05:00:40;;;;;;;;;3.00;1.00;;;;;;;;5097670;27;46562;-43
2021/12/09 05:03:09;;;;;;;;;1.00;1.00;;;;;;;;5097968;27;45402;-43
2021/12/09 05:05:39;;;;;;;;;1.00;1.00;;;;;;;;5097867;27;45405;-42
2021/12/09 05:08:05;;;;;;;;;1.75;1.00;;;;;;;;5097382;27;45429;-42
2021/12/09 05:10:35;;;;;;;;;2.75;1.75;;;;;;;;5097384;27;46192;-42
2021/12/09 05:13:02;;;;;;;;;2.00;2.00;;;;;;;;5098323;27;45319;-42
2021/12/09 05:15:27;;;;;;;;;4.50;1.50;;;;;;;;5096915;27;45548;-43
2021/12/09 05:17:52;;;;;;;;;1.00;1.00;;;;;;;;5098137;27;45295;-43
2021/12/09 05:20:18;;;;;;;;;5.00;2.00;;;;;;;;5097482;27;45310;-43
2021/12/09 05:22:43;;;;;;;;;1.00;1.00;;;;;;;;5097565;27;45201;-44
2021/12/09 05:25:08;;;;;;;;;4.00;4.00;;;;;;;;5098209;27;45406;-43
2021/12/09 05:27:36;;;;;;;;;1.00;1.00;;;;;;;;5096847;27;45232;-44
2021/12/09 05:30:11;;;;;;;;;2.00;2.00;;;;;;;;5096166;27;45566;-44
2021/12/09 05:32:36;;;;;;;;;2.50;2.50;;;;;;;;5079105;27;45465;-44
2021/12/09 05:35:02;;;;;;;;;5.00;2.50;;;;;;;;5097596;27;45326;-44
2021/12/09 05:37:28;;;;;;;;;1.00;1.00;;;;;;;;5096099;27;45540;-42
2021/12/09 05:39:55;;;;;;;;;1.75;1.75;;;;;;;;5097581;27;45388;-43
2021/12/09 05:42:21;;;;;;;;;2.25;2.25;;;;;;;;5097512;27;45370;-43
2021/12/09 05:44:46;;;;;;;;;2.00;2.00;;;;;;;;5097327;27;45513;-43
2021/12/09 05:47:12;;;;;;;;;2.00;2.00;;;;;;;;5090414;27;45199;-43
2021/12/09 05:49:39;;;;;;;;;3.00;3.00;;;;;;;;5077135;27;46257;-42
2021/12/09 05:52:05;;;;;;;;;3.00;3.00;;;;;;;;5097233;27;45599;-43
2021/12/09 05:54:30;;;;;;;;;4.00;3.00;;;;;;;;5096339;27;45500;-45
2021/12/09 05:56:55;;;;;;;;;3.00;3.00;;;;;;;;5097130;27;45446;-43
2021/12/09 05:59:21;;;;;;;;;2.50;2.00;;;;;;;;5096958;27;45404;-43
2021/12/09 06:01:46;;;;;;;;;6.00;5.00;;;;;;;;5067582;27;45485;-42
2021/12/09 06:04:11;;;;;;;;;3.50;2.00;;;;;;;;5079178;27;45386;-44
2021/12/09 06:06:37;;;;;;;;;3.50;3.50;;;;;;;;5096879;27;45356;-44
2021/12/09 06:09:04;;;;;;;;;4.50;2.75;;;;;;;;5096796;27;46349;-41
2021/12/09 06:11:30;;;;;;;;;3.50;3.50;;;;;;;;5096635;27;45466;-41
2021/12/09 06:13:55;;;;;;;;;10.00;5.50;;;;;;;;5096424;27;45175;-42
2021/12/09 06:16:21;;;;;;;;;2.00;2.00;;;;;;;;5096795;27;45493;-42
2021/12/09 06:18:47;;;;;;;;;5.50;5.50;;;;;;;;5096913;27;47032;-43
2021/12/09 06:21:12;;;;;;;;;2.75;2.75;;;;;;;;5077883;27;45377;-41
2021/12/09 06:23:37;;;;;;;;;5.00;3.00;;;;;;;;5092184;27;45501;-42
2021/12/09 06:26:05;;;;;;;;;2.00;2.00;;;;;;;;5094929;27;45481;-44
2021/12/09 06:28:30;;;;;;;;;4.00;4.00;;;;;;;;5095586;27;45657;-42
2021/12/09 06:30:56;;;;;;;;;2.25;2.25;;;;;;;;5087356;27;45399;-42
2021/12/09 06:33:21;;;;;;;;;5.50;3.00;;;;;;;;5095108;27;45414;-44
2021/12/09 06:35:46;;;;;;;;;5.00;3.00;;;;;;;;5078740;27;45389;-44
2021/12/09 06:38:15;;;;;;;;;3.50;3.50;;;;;;;;5096460;27;46511;-43
2021/12/09 06:40:40;;;;;;;;;2.50;2.50;;;;;;;;5075644;28;45350;-44
2021/12/09 06:43:06;;;;;;;;;3.00;3.00;;;;;;;;5082916;27;45193;-43
2021/12/09 06:45:32;;;;;;;;;6.75;5.25;;;;;;;;5096197;27;45603;-43
2021/12/09 06:47:57;;;;;;;;;4.00;4.00;;;;;;;;5093465;27;45421;-44
2021/12/09 06:50:23;;;;;;;;;3.50;3.50;;;;;;;;5095554;27;45167;-45
2021/12/09 06:52:49;;;;;;;;;7.00;6.50;;;;;;;;5094742;27;45307;-42
2021/12/09 06:55:15;;;;;;;;;6.25;6.25;;;;;;;;5077058;27;45427;-42
2021/12/09 06:57:43;;;;;;;;;7.00;7.00;;;;;;;;5095898;27;46411;-41
2021/12/09 07:00:09;;;;;;;;;5.00;5.00;;;;;;;;5070788;27;45947;-43
2021/12/09 07:02:34;;;;;;;;;5.50;5.50;;;;;;;;5095066;27;45482;-42
2021/12/09 07:05:00;;;;;;;;;7.50;5.25;;;;;;;;5094152;27;45676;-43
2021/12/09 07:07:25;;;;;;;;;6.00;6.00;;;;;;;;5073003;27;48222;-42
2021/12/09 07:09:50;;;;;;;;;6.00;6.00;;;;;;;;5089381;27;45464;-43
2021/12/09 07:12:15;;;;;;;;;5.00;5.00;;;;;;;;5067211;27;45460;-43
2021/12/09 07:14:43;;;;;;;;;6.00;6.00;;;;;;;;5078130;27;45910;-44
2021/12/09 07:17:08;;;;;;;;;16.00;16.00;;;;;;;;5078124;27;46213;-43
2021/12/09 07:19:35;;;;;;;;;6.50;6.50;;;;;;;;5082309;27;45567;-43
2021/12/09 07:22:01;;;;;;;;;7.25;7.25;;;;;;;;5092151;27;45489;-44
2021/12/09 07:24:26;;;;;;;;;6.00;6.00;;;;;;;;5095162;27;45357;-43
2021/12/09 07:26:51;;;;;;;;;4.50;4.50;;;;;;;;5095085;27;45562;-44
2021/12/09 07:29:16;;;;;;;;;6.00;5.00;;;;;;;;5075031;27;45517;-43
2021/12/09 07:31:42;;;;;;;;;11.00;9.75;;;;;;;;5089604;27;45450;-44
2021/12/09 07:34:07;;;;;;;;;5.25;5.25;;;;;;;;5095067;27;45397;-44
2021/12/09 07:36:32;;;;;;;;;5.50;4.50;;;;;;;;5095325;27;45389;-43
2021/12/09 07:38:57;;;;;;;;;9.50;6.00;;;;;;;;5098789;27;45440;-43
2021/12/09 07:41:24;;;;;;;;;10.50;8.25;;;;;;;;5107574;27;45450;-43
2021/12/09 07:43:49;;;;;;;;;6.75;6.75;;;;;;;;5081285;27;45415;-43
2021/12/09 07:46:15;;;;;;;;;6.50;6.25;;;;;;;;5090018;27;46241;-43
2021/12/09 07:48:40;;;;;;;;;7.25;6.00;;;;;;;;5094644;27;45707;-43
2021/12/09 07:51:05;;;;;;;;;9.00;6.25;;;;;;;;5095701;27;45226;-42
2021/12/09 07:53:31;;;;;;;;;7.00;7.00;;;;;;;;5097318;27;45487;-43
2021/12/09 07:55:56;;;;;;;;;6.00;6.00;;;;;;;;5098401;27;47168;-41
2021/12/09 07:58:22;;;;;;;;;6.50;5.50;;;;;;;;5099102;27;45338;-45
2021/12/09 08:00:48;;;;;;;;;9.75;9.75;;;;;;;;5098013;27;45513;-45
2021/12/09 08:03:14;;;;;;;;;7.50;6.50;;;;;;;;5098814;27;45547;-45
2021/12/09 08:05:41;;;;;;;;;9.50;7.00;;;;;;;;5096301;27;46610;-41
2021/12/09 08:08:06;;;;;;;;;9.25;7.50;;;;;;;;5099043;27;45504;-47
2021/12/09 08:10:34;;;;;;;;;13.25;9.25;;;;;;;;5095997;27;45413;-46
2021/12/09 08:13:00;;;;;;;;;9.75;6.75;;;;;;;;5079566;27;45342;-45
2021/12/09 08:15:27;;;;;;;;;8.00;5.75;;;;;;;;5084726;27;45488;-45
2021/12/09 08:18:02;;;;;;;;;9.00;7.00;;;;;;;;5097468;27;45201;-48
2021/12/09 08:20:28;;;;;;;;;7.00;6.25;;;;;;;;5099187;27;45380;-43
2021/12/09 08:22:53;;;;;;;;;8.50;6.00;;;;;;;;5097905;27;45630;-45
2021/12/09 08:25:19;;;;;;;;;6.25;5.00;;;;;;;;5095636;27;46159;-45
2021/12/09 08:27:45;;;;;;;;;9.75;6.75;;;;;;;;5096935;27;45422;-45
2021/12/09 08:30:12;;;;;;;;;7.25;6.00;;;;;;;;5097870;27;45342;-45
2021/12/09 08:32:38;;;;;;;;;8.00;6.25;;;;;;;;5098623;27;45412;-45
2021/12/09 08:35:03;;;;;;;;;7.25;6.75;;;;;;;;5095408;27;46253;-49
2021/12/09 08:37:29;;;;;;;;;8.00;6.50;;;;;;;;5097534;27;45453;-47
2021/12/09 08:39:56;;;;;;;;;6.00;6.00;;;;;;;;5098807;27;45342;-47
2021/12/09 08:42:21;;;;;;;;;6.25;5.00;;;;;;;;5096535;27;45544;-47
2021/12/09 08:44:46;;;;;;;;;6.00;5.75;;;;;;;;5097696;27;46043;-50
2021/12/09 08:47:12;;;;;;;;;9.75;7.00;;;;;;;;5097515;27;45438;-49
2021/12/09 08:49:37;;;;;;;;;7.50;6.25;;;;;;;;5098506;27;45366;-47
2021/12/09 08:52:03;;;;;;;;;8.50;5.00;;;;;;;;5098132;27;45377;-47
2021/12/09 08:54:28;;;;;;;;;5.50;5.50;;;;;;;;5097855;27;46310;-50
2021/12/09 08:56:54;;;;;;;;;8.00;8.00;;;;;;;;5097463;27;45445;-49
2021/12/09 08:59:20;;;;;;;;;6.75;6.00;;;;;;;;5098619;27;45417;-47
2021/12/09 09:01:45;;;;;;;;;6.50;5.75;;;;;;;;5097031;27;45571;-48
2021/12/09 09:04:11;;;;;;;;;4.50;4.50;;;;;;;;5096806;27;45347;-48
2021/12/09 09:06:36;;;;;;;;;5.75;5.25;;;;;;;;5097330;27;45705;-45
2021/12/09 09:09:04;;;;;;;;;5.00;5.00;;;;;;;;5097785;27;45438;-46
2021/12/09 09:11:30;;;;;;;;;5.50;5.25;;;;;;;;5076555;27;45489;-48
2021/12/09 09:13:55;;;;;;;;;5.75;5.00;;;;;;;;5079119;27;47151;-47
2021/12/09 09:16:20;;;;;;;;;5.50;2.75;;;;;;;;5097197;27;45282;-46
2021/12/09 09:18:46;;;;;;;;;5.75;5.00;;;;;;;;5096604;27;45230;-47
2021/12/09 09:21:11;;;;;;;;;6.75;6.00;;;;;;;;5097575;27;45481;-46
2021/12/09 09:23:36;;;;;;;;;9.00;6.25;;;;;;;;5097840;27;46243;-48
2021/12/09 09:26:02;;;;;;;;;8.75;5.00;;;;;;;;5097212;27;45263;-46
2021/12/09 09:28:27;;;;;;;;;6.00;6.00;;;;;;;;5096677;27;45237;-50
2021/12/09 09:30:53;;;;;;;;;6.00;6.00;;;;;;;;5097599;27;45263;-46
2021/12/09 09:33:20;;;;;;;;;7.25;6.25;;;;;;;;5097194;27;45357;-46
2021/12/09 09:35:46;;;;;;;;;6.50;6.50;;;;;;;;5079257;27;45428;-48
2021/12/09 09:38:12;;;;;;;;;5.00;5.00;;;;;;;;5097101;27;45481;-52
2021/12/09 09:40:41;;;;;;;;;6.00;6.00;;;;;;;;5096815;27;45615;-47
2021/12/09 09:43:15;;;;;;;;;5.00;5.00;;;;;;;;5097292;27;45295;-46
2021/12/09 09:45:40;;;;;;;;;6.25;6.25;;;;;;;;5078321;27;45278;-47
2021/12/09 09:48:11;;;;;;;;;10.25;5.50;;;;;;;;5097075;27;45267;-47
2021/12/09 09:50:37;;;;;;;;;6.50;5.50;;;;;;;;5096769;27;45515;-50
2021/12/09 09:53:02;;;;;;;;;6.50;6.50;;;;;;;;5097113;27;46104;-50
2021/12/09 09:55:27;;;;;;;;;5.00;5.00;;;;;;;;5095521;27;45527;-48
2021/12/09 09:57:52;;;;;;;;;5.00;5.00;;;;;;;;5096861;27;45386;-47
2021/12/09 10:00:19;;;;;;;;;26.00;17.25;;;;;;;;5096944;27;45548;-46
2021/12/09 10:02:51;;;;;;;;;7.25;7.25;;;;;;;;5096539;27;47472;-46
2021/12/09 10:05:22;;;;;;;;;6.00;6.00;;;;;;;;5096386;27;45760;-46
2021/12/09 10:07:47;;;;;;;;;2.50;2.50;;;;;;;;5096819;27;45338;-49
2021/12/09 10:10:12;;;;;;;;;5.00;5.00;;;;;;;;5095555;27;45349;-49
2021/12/09 10:12:53;;;;;;;;;7.00;7.00;;;;;;;;5092855;27;46505;-47
2021/12/09 10:15:31;;;;;;;;;6.00;6.00;;;;;;;;5096074;27;45519;-49
2021/12/09 10:17:56;;;;;;;;;7.75;6.25;;;;;;;;5093031;27;45458;-50
2021/12/09 10:20:21;;;;;;;;;5.25;5.25;;;;;;;;5095926;27;45179;-48
2021/12/09 10:22:46;;;;;;;;;5.75;5.75;;;;;;;;5095976;27;45531;-47
2021/12/09 10:25:16;;;;;;;;;7.00;6.00;;;;;;;;5096396;27;45383;-49
2021/12/09 10:27:45;;;;;;;;;6.75;5.75;;;;;;;;5095931;27;45466;-48
2021/12/09 10:30:13;;;;;;;;;6.00;6.00;;;;;;;;5085013;27;45524;-45
2021/12/09 10:32:40;;;;;;;;;7.00;5.00;;;;;;;;5096310;27;45369;-47
2021/12/09 10:35:25;;;;;;;;;5.50;5.00;;;;;;;;5096058;27;45438;-48
2021/12/09 10:37:51;;;;;;;;;8.00;6.50;;;;;;;;5095314;27;45417;-49
2021/12/09 10:40:35;;;;;;;;;5.00;5.00;;;;;;;;5096353;27;45373;-46
2021/12/09 10:43:03;;;;;;;;;9.00;5.00;;;;;;;;5093799;27;45641;-46
2021/12/09 10:45:30;;;;;;;;;7.00;7.00;;;;;;;;5092914;27;45533;-48
2021/12/09 10:47:58;;;;;;;;;6.00;6.00;;;;;;;;5093931;27;45472;-46
2021/12/09 10:50:38;;;;;;;;;3.50;2.75;;;;;;;;5094897;27;45619;-47
2021/12/09 10:55:59;;;;;;;;;90.25;71.75;;;;;;;;5094750;27;45522;-48
2021/12/09 10:58:26;;;;;;;;;70.75;55.75;;;;;;;;5092913;27;45567;-47
2021/12/09 11:00:52;;;;;;;;;10.00;8.25;;;;;;;;5082904;27;45500;-49
2021/12/09 11:03:20;;;;;;;;;5.00;3.00;;;;;;;;5076712;27;48327;-47
2021/12/09 11:05:50;;;;;;;;;7.25;7.25;;;;;;;;5075158;27;45460;-46
2021/12/09 11:08:42;;;;;;;;;5.25;5.25;;;;;;;;5095192;27;45548;-48
2021/12/09 11:11:07;;;;;;;;;6.00;6.00;;;;;;;;5089401;27;45526;-45
2021/12/09 11:13:36;;;;;;;;;6.50;5.75;;;;;;;;5094035;27;46882;-45
2021/12/09 11:16:04;;;;;;;;;7.50;6.25;;;;;;;;5095923;27;45329;-46
2021/12/09 11:18:37;;;;;;;;;6.25;6.00;;;;;;;;5091828;27;45482;-47
2021/12/09 11:21:23;;;;;;;;;7.00;5.50;;;;;;;;5095305;27;45507;-46
2021/12/09 11:23:56;;;;;;;;;9.75;6.75;;;;;;;;5095649;27;46668;-45
2021/12/09 11:26:33;;;;;;;;;10.00;8.00;;;;;;;;5095625;27;45377;-45
2021/12/09 11:29:05;;;;;;;;;11.50;11.50;;;;;;;;5097863;27;45232;-45
2021/12/09 11:31:33;;;;;;;;;6.25;6.00;;;;;;;;5098936;27;45480;-47
2021/12/09 11:34:04;;;;;;;;;7.00;6.00;;;;;;;;5078563;28;46055;-48
2021/12/09 11:36:50;;;;;;;;;6.50;6.50;;;;;;;;5086263;27;45456;-49
2021/12/09 11:39:20;;;;;;;;;11.75;8.00;;;;;;;;5080651;27;45300;-45
2021/12/09 11:41:46;;;;;;;;;17.50;16.00;;;;;;;;5098397;27;45463;-46
2021/12/09 11:44:12;;;;;;;;;12.00;11.00;;;;;;;;5098767;27;47410;-47
2021/12/09 11:46:40;;;;;;;;;15.25;10.00;;;;;;;;5097970;27;45466;-45
2021/12/09 11:49:06;;;;;;;;;6.00;6.00;;;;;;;;5092952;27;45487;-46
2021/12/09 11:51:31;;;;;;;;;6.75;4.75;;;;;;;;5097880;27;45532;-49
2021/12/09 11:53:58;;;;;;;;;11.00;8.00;;;;;;;;5097328;27;45821;-56
2021/12/09 11:56:56;;;;;;;;;9.00;8.00;;;;;;;;5093576;27;45244;-54
2021/12/09 11:59:41;;;;;;;;;13.75;13.25;;;;;;;;5090558;27;45400;-54
2021/12/09 12:11:26;;;;;;;;;5.00;5.00;;;;;;;;5059343;27;45438;-51
2021/12/09 12:14:17;;;;;;;;;6.00;6.00;;;;;;;;5097690;27;45378;-52
2021/12/09 12:19:32;;;;;;;;;5.50;5.50;;;;;;;;5087016;27;45386;-55
2021/12/09 12:22:19;;;;;;;;;7.50;6.00;;;;;;;;5095147;27;45392;-49
2021/12/09 12:28:15;;;;;;;;;6.75;5.75;;;;;;;;5098204;27;45500;-54
2021/12/09 12:30:55;;;;;;;;;7.75;7.25;;;;;;;;5006259;28;45437;-45
2021/12/09 12:33:48;;;;;;;;;8.00;7.00;;;;;;;;5088031;27;45509;-42
2021/12/09 12:36:38;;;;;;;;;9.75;9.75;;;;;;;;5093390;27;45462;-45
2021/12/09 12:39:15;;;;;;;;;7.25;7.25;;;;;;;;5079838;27;46423;-45
2021/12/09 12:41:56;;;;;;;;;12.00;9.25;;;;;;;;5097816;27;45273;-43
2021/12/09 12:44:22;;;;;;;;;6.50;5.75;;;;;;;;5097861;27;45379;-44
2021/12/09 12:47:15;;;;;;;;;4.00;4.00;;;;;;;;5081363;27;45378;-42
2021/12/09 12:49:46;;;;;;;;;2.50;2.00;;;;;;;;5076965;28;46426;-45
2021/12/09 12:52:21;;;;;;;;;3.00;3.00;;;;;;;;5088978;27;45279;-54
2021/12/09 12:54:54;;;;;;;;;10.00;4.75;;;;;;;;5095774;27;45242;-56
2021/12/09 12:57:31;;;;;;;;;6.25;5.00;;;;;;;;5096969;27;45303;-52
2021/12/09 13:00:18;;;;;;;;;7.00;7.00;;;;;;;;5072432;27;46366;-46
2021/12/09 13:03:11;;;;;;;;;7.00;7.00;;;;;;;;5092872;27;45336;-41
2021/12/09 13:06:29;;;;;;;;;2.00;2.00;;;;;;;;5078309;27;45500;-48
2021/12/09 13:09:07;;;;;;;;;3.00;3.00;;;;;;;;5080538;27;45709;-48
2021/12/09 13:11:39;;;;;;;;;7.50;5.75;;;;;;;;5095740;27;45827;-45
2021/12/09 13:14:07;;;;;;;;;6.50;3.25;;;;;;;;5097141;27;45331;-47
2021/12/09 13:16:48;;;;;;;;;6.00;4.75;;;;;;;;5098067;27;45481;-48
2021/12/09 13:19:17;;;;;;;;;6.75;4.75;;;;;;;;5097294;27;45422;-48
2021/12/09 13:21:43;;;;;;;;;5.50;5.25;;;;;;;;5097896;27;45362;-45
2021/12/09 13:24:36;;;;;;;;;8.25;6.00;;;;;;;;5098045;27;45445;-45
2021/12/09 13:27:50;;;;;;;;;5.50;2.25;;;;;;;;5096953;27;45477;-46
2021/12/09 13:35:34;;;;;;;;;8.50;5.25;;;;;;;;5092531;27;45496;-46
2021/12/09 13:46:25;;;;;;;;;2.00;1.00;;;;;;;;5076976;28;45477;-46
2021/12/09 13:49:06;;;;;;;;;2.50;2.50;;;;;;;;5076919;28;45360;-48
2021/12/09 13:56:55;;;;;;;;;4.75;3.75;;;;;;;;5096903;27;45394;-44
2021/12/09 13:59:22;;;;;;;;;3.00;3.00;;;;;;;;5097728;27;45456;-44
2021/12/09 14:01:51;;;;;;;;;3.00;3.00;;;;;;;;5078841;27;45553;-47
2021/12/09 14:04:20;;;;;;;;;3.00;3.00;;;;;;;;5097047;27;45389;-47
2021/12/09 14:06:48;;;;;;;;;5.25;3.25;;;;;;;;5096799;27;45527;-46
2021/12/09 14:09:13;;;;;;;;;3.00;3.00;;;;;;;;5096870;27;45350;-45
2021/12/09 14:11:46;;;;;;;;;1.50;1.50;;;;;;;;5097083;27;45417;-47
2021/12/09 14:14:15;;;;;;;;;6.25;5.50;;;;;;;;5078145;27;48110;-46
2021/12/09 14:16:52;;;;;;;;;5.25;5.25;;;;;;;;5096976;27;45307;-48
2021/12/09 14:21:49;;;;;;;;;6.75;6.25;;;;;;;;5096903;27;45592;-45
2021/12/09 14:24:24;;;;;;;;;7.00;7.00;;;;;;;;5096523;27;46770;-47
2021/12/09 14:26:54;;;;;;;;;6.25;6.00;;;;;;;;5077837;27;45455;-45
2021/12/09 14:29:20;;;;;;;;;4.25;4.25;;;;;;;;5097049;27;45342;-44
2021/12/09 14:31:47;;;;;;;;;7.00;6.25;;;;;;;;5096620;27;45477;-45
2021/12/09 14:34:13;;;;;;;;;6.00;6.00;;;;;;;;5096315;27;45403;-45
2021/12/09 14:36:39;;;;;;;;;4.25;4.25;;;;;;;;5096171;27;45357;-48
2021/12/09 14:39:05;;;;;;;;;8.25;6.00;;;;;;;;5095754;27;45310;-47
2021/12/09 14:41:31;;;;;;;;;6.50;6.25;;;;;;;;5096540;27;45606;-49
2021/12/09 14:43:56;;;;;;;;;6.00;6.00;;;;;;;;5096089;27;46155;-45
2021/12/09 14:46:27;;;;;;;;;7.00;7.00;;;;;;;;5096509;27;45287;-47
2021/12/09 14:48:53;;;;;;;;;7.75;7.50;;;;;;;;5096402;27;45313;-46
2021/12/09 14:51:19;;;;;;;;;12.50;8.75;;;;;;;;5095798;27;45397;-48
2021/12/09 14:53:54;;;;;;;;;6.75;6.00;;;;;;;;5096320;27;45547;-44
2021/12/09 14:56:29;;;;;;;;;9.50;7.50;;;;;;;;5095438;27;45470;-46
2021/12/09 14:59:14;;;;;;;;;8.00;8.00;;;;;;;;5094937;27;45391;-47
2021/12/09 15:01:40;;;;;;;;;12.25;7.25;;;;;;;;5077502;27;45638;-47
2021/12/09 15:04:13;;;;;;;;;13.25;12.75;;;;;;;;5097867;27;45492;-47
2021/12/09 15:06:41;;;;;;;;;8.75;8.75;;;;;;;;5100050;27;45424;-45
2021/12/09 15:09:15;;;;;;;;;8.00;8.00;;;;;;;;5099264;27;45222;-49
2021/12/09 15:11:42;;;;;;;;;7.75;6.00;;;;;;;;5081630;27;45419;-49
2021/12/09 15:14:14;;;;;;;;;6.75;6.75;;;;;;;;5081270;27;46980;-48
2021/12/09 15:16:40;;;;;;;;;12.75;8.00;;;;;;;;5100114;27;45358;-45
2021/12/09 15:19:16;;;;;;;;;103.75;92.50;;;;;;;;5081608;27;45452;-43
2021/12/09 15:21:41;;;;;;;;;21.50;21.50;;;;;;;;5099752;27;45483;-46
2021/12/09 15:24:08;;;;;;;;;11.00;8.50;;;;;;;;5099225;27;46030;-45
2021/12/09 15:26:36;;;;;;;;;6.25;6.25;;;;;;;;5099884;27;45300;-45